sensor_id;sensor_type;location;lat;lon;timestamp;P1;durP1;ratioP1;P2;durP2;ratioP2
35126;SDS011;21300;52.006;5.798;2023-07-31T00:00:27;1.50;;;0.90;;
35126;SDS011;21300;52.006;5.798;2023-07-31T00:02:53;1.55;;;0.90;;
35126;SDS011;21300;52.006;5.798;2023-07-31T00:05:19;1.35;;;0.88;;
35126;SDS011;21300;52.006;5.798;2023-07-31T00:07:45;1.30;;;0.90;;
35126;SDS011;21300;52.006;5.798;2023-07-31T00:10:10;1.73;;;0.90;;
35126;SDS011;21300;52.006;5.798;2023-07-31T00:12:37;1.20;;;0.90;;
35126;SDS011;21300;52.006;5.798;2023-07-31T00:15:03;1.85;;;0.93;;
35126;SDS011;21300;52.006;5.798;2023-07-31T00:17:29;1.58;;;0.80;;
35126;SDS011;21300;52.006;5.798;2023-07-31T00:19:55;2.97;;;1.20;;
35126;SDS011;21300;52.006;5.798;2023-07-31T00:22:20;1.98;;;1.17;;
35126;SDS011;21300;52.006;5.798;2023-07-31T00:24:46;2.05;;;1.08;;
35126;SDS011;21300;52.006;5.798;2023-07-31T00:27:12;2.22;;;1.20;;
35126;SDS011;21300;52.006;5.798;2023-07-31T00:29:37;1.42;;;1.10;;
35126;SDS011;21300;52.006;5.798;2023-07-31T00:32:03;2.83;;;1.23;;
35126;SDS011;21300;52.006;5.798;2023-07-31T00:34:29;1.65;;;1.33;;
35126;SDS011;21300;52.006;5.798;2023-07-31T00:36:54;2.50;;;1.50;;
35126;SDS011;21300;52.006;5.798;2023-07-31T00:39:20;3.72;;;1.80;;
35126;SDS011;21300;52.006;5.798;2023-07-31T00:41:45;3.60;;;2.60;;
35126;SDS011;21300;52.006;5.798;2023-07-31T00:44:11;4.63;;;2.50;;
35126;SDS011;21300;52.006;5.798;2023-07-31T00:46:36;6.28;;;3.20;;
35126;SDS011;21300;52.006;5.798;2023-07-31T00:49:02;7.28;;;4.13;;
35126;SDS011;21300;52.006;5.798;2023-07-31T00:51:29;9.57;;;4.28;;
35126;SDS011;21300;52.006;5.798;2023-07-31T00:53:55;10.65;;;5.10;;
35126;SDS011;21300;52.006;5.798;2023-07-31T00:56:21;13.90;;;5.68;;
35126;SDS011;21300;52.006;5.798;2023-07-31T00:58:47;12.95;;;5.60;;
35126;SDS011;21300;52.006;5.798;2023-07-31T01:01:13;14.90;;;6.32;;
35126;SDS011;21300;52.006;5.798;2023-07-31T01:03:38;13.77;;;6.32;;
35126;SDS011;21300;52.006;5.798;2023-07-31T01:11:19;16.55;;;6.75;;
35126;SDS011;21300;52.006;5.798;2023-07-31T01:13:52;24.92;;;7.53;;
35126;SDS011;21300;52.006;5.798;2023-07-31T01:16:19;21.23;;;7.15;;
35126;SDS011;21300;52.006;5.798;2023-07-31T01:18:45;18.30;;;7.60;;
35126;SDS011;21300;52.006;5.798;2023-07-31T01:26:33;20.83;;;8.45;;
35126;SDS011;21300;52.006;5.798;2023-07-31T01:29:01;24.73;;;8.65;;
35126;SDS011;21300;52.006;5.798;2023-07-31T01:31:33;23.27;;;8.77;;
35126;SDS011;21300;52.006;5.798;2023-07-31T01:34:01;23.35;;;8.02;;
35126;SDS011;21300;52.006;5.798;2023-07-31T01:36:28;28.25;;;8.80;;
35126;SDS011;21300;52.006;5.798;2023-07-31T01:38:58;21.00;;;7.78;;
35126;SDS011;21300;52.006;5.798;2023-07-31T01:41:25;24.95;;;7.80;;
35126;SDS011;21300;52.006;5.798;2023-07-31T01:43:51;22.95;;;8.07;;
35126;SDS011;21300;52.006;5.798;2023-07-31T01:46:16;18.13;;;7.22;;
35126;SDS011;21300;52.006;5.798;2023-07-31T01:48:42;21.55;;;9.07;;
35126;SDS011;21300;52.006;5.798;2023-07-31T01:51:07;16.85;;;7.90;;
35126;SDS011;21300;52.006;5.798;2023-07-31T01:53:33;30.92;;;8.95;;
35126;SDS011;21300;52.006;5.798;2023-07-31T01:55:58;25.92;;;7.80;;
35126;SDS011;21300;52.006;5.798;2023-07-31T01:58:24;21.92;;;9.00;;
35126;SDS011;21300;52.006;5.798;2023-07-31T02:00:50;21.98;;;8.35;;
35126;SDS011;21300;52.006;5.798;2023-07-31T02:03:15;16.45;;;7.35;;
35126;SDS011;21300;52.006;5.798;2023-07-31T02:05:47;20.17;;;7.38;;
35126;SDS011;21300;52.006;5.798;2023-07-31T02:08:14;19.42;;;7.78;;
35126;SDS011;21300;52.006;5.798;2023-07-31T02:10:40;20.02;;;7.60;;
35126;SDS011;21300;52.006;5.798;2023-07-31T02:13:06;21.67;;;7.63;;
35126;SDS011;21300;52.006;5.798;2023-07-31T02:15:31;19.92;;;8.18;;
35126;SDS011;21300;52.006;5.798;2023-07-31T02:17:57;13.77;;;6.47;;
35126;SDS011;21300;52.006;5.798;2023-07-31T02:20:23;15.35;;;6.97;;
35126;SDS011;21300;52.006;5.798;2023-07-31T02:22:48;15.23;;;6.60;;
35126;SDS011;21300;52.006;5.798;2023-07-31T02:25:14;15.77;;;7.00;;
35126;SDS011;21300;52.006;5.798;2023-07-31T02:27:40;17.92;;;6.82;;
35126;SDS011;21300;52.006;5.798;2023-07-31T02:30:05;13.73;;;6.63;;
35126;SDS011;21300;52.006;5.798;2023-07-31T02:32:31;15.95;;;6.35;;
35126;SDS011;21300;52.006;5.798;2023-07-31T02:34:57;10.35;;;5.07;;
35126;SDS011;21300;52.006;5.798;2023-07-31T02:37:23;9.05;;;5.00;;
35126;SDS011;21300;52.006;5.798;2023-07-31T02:39:50;12.80;;;4.80;;
35126;SDS011;21300;52.006;5.798;2023-07-31T02:42:16;15.73;;;5.13;;
35126;SDS011;21300;52.006;5.798;2023-07-31T02:44:41;10.60;;;4.72;;
35126;SDS011;21300;52.006;5.798;2023-07-31T02:47:07;9.43;;;4.78;;
35126;SDS011;21300;52.006;5.798;2023-07-31T02:49:32;13.95;;;5.80;;
35126;SDS011;21300;52.006;5.798;2023-07-31T02:51:58;14.30;;;5.35;;
35126;SDS011;21300;52.006;5.798;2023-07-31T02:54:24;17.85;;;5.80;;
35126;SDS011;21300;52.006;5.798;2023-07-31T02:56:49;18.02;;;6.50;;
35126;SDS011;21300;52.006;5.798;2023-07-31T02:59:15;11.23;;;5.65;;
35126;SDS011;21300;52.006;5.798;2023-07-31T03:01:42;17.70;;;6.53;;
35126;SDS011;21300;52.006;5.798;2023-07-31T03:04:07;20.63;;;6.75;;
35126;SDS011;21300;52.006;5.798;2023-07-31T03:06:33;17.30;;;7.28;;
35126;SDS011;21300;52.006;5.798;2023-07-31T03:08:58;17.95;;;6.55;;
35126;SDS011;21300;52.006;5.798;2023-07-31T03:11:24;18.17;;;5.97;;
35126;SDS011;21300;52.006;5.798;2023-07-31T03:13:49;17.48;;;7.18;;
35126;SDS011;21300;52.006;5.798;2023-07-31T03:16:15;21.38;;;7.65;;
35126;SDS011;21300;52.006;5.798;2023-07-31T03:18:41;17.90;;;7.07;;
35126;SDS011;21300;52.006;5.798;2023-07-31T03:21:06;18.77;;;7.25;;
35126;SDS011;21300;52.006;5.798;2023-07-31T03:23:32;23.23;;;8.55;;
35126;SDS011;21300;52.006;5.798;2023-07-31T03:26:01;17.15;;;5.90;;
35126;SDS011;21300;52.006;5.798;2023-07-31T03:28:28;21.73;;;7.85;;
35126;SDS011;21300;52.006;5.798;2023-07-31T03:30:55;21.65;;;7.07;;
35126;SDS011;21300;52.006;5.798;2023-07-31T03:33:20;20.65;;;6.95;;
35126;SDS011;21300;52.006;5.798;2023-07-31T03:35:46;24.15;;;7.45;;
35126;SDS011;21300;52.006;5.798;2023-07-31T03:38:11;19.98;;;7.43;;
35126;SDS011;21300;52.006;5.798;2023-07-31T03:40:37;20.23;;;7.35;;
35126;SDS011;21300;52.006;5.798;2023-07-31T03:43:03;24.35;;;6.75;;
35126;SDS011;21300;52.006;5.798;2023-07-31T03:45:29;21.63;;;7.53;;
35126;SDS011;21300;52.006;5.798;2023-07-31T03:47:55;18.48;;;6.57;;
35126;SDS011;21300;52.006;5.798;2023-07-31T03:50:21;19.48;;;7.05;;
35126;SDS011;21300;52.006;5.798;2023-07-31T03:52:46;22.27;;;7.70;;
35126;SDS011;21300;52.006;5.798;2023-07-31T03:55:12;18.73;;;7.28;;
35126;SDS011;21300;52.006;5.798;2023-07-31T03:57:38;19.92;;;6.60;;
35126;SDS011;21300;52.006;5.798;2023-07-31T04:00:03;20.98;;;6.95;;
35126;SDS011;21300;52.006;5.798;2023-07-31T04:02:29;24.38;;;7.00;;
35126;SDS011;21300;52.006;5.798;2023-07-31T04:04:55;21.38;;;6.45;;
35126;SDS011;21300;52.006;5.798;2023-07-31T04:07:20;18.40;;;6.47;;
35126;SDS011;21300;52.006;5.798;2023-07-31T04:09:46;17.23;;;6.68;;
35126;SDS011;21300;52.006;5.798;2023-07-31T04:12:12;20.27;;;7.60;;
35126;SDS011;21300;52.006;5.798;2023-07-31T04:14:37;23.13;;;6.47;;
35126;SDS011;21300;52.006;5.798;2023-07-31T04:17:03;24.50;;;7.22;;
35126;SDS011;21300;52.006;5.798;2023-07-31T04:19:28;18.83;;;6.75;;
35126;SDS011;21300;52.006;5.798;2023-07-31T04:21:54;21.45;;;6.63;;
35126;SDS011;21300;52.006;5.798;2023-07-31T04:24:20;21.15;;;7.28;;
35126;SDS011;21300;52.006;5.798;2023-07-31T04:26:52;18.27;;;7.40;;
35126;SDS011;21300;52.006;5.798;2023-07-31T04:29:18;14.70;;;6.63;;
35126;SDS011;21300;52.006;5.798;2023-07-31T04:31:45;18.38;;;7.15;;
35126;SDS011;21300;52.006;5.798;2023-07-31T04:34:10;20.48;;;7.40;;
35126;SDS011;21300;52.006;5.798;2023-07-31T04:36:39;19.30;;;7.60;;
35126;SDS011;21300;52.006;5.798;2023-07-31T04:39:05;20.05;;;7.18;;
35126;SDS011;21300;52.006;5.798;2023-07-31T04:41:30;24.05;;;6.82;;
35126;SDS011;21300;52.006;5.798;2023-07-31T04:43:56;21.60;;;6.70;;
35126;SDS011;21300;52.006;5.798;2023-07-31T04:46:21;22.80;;;7.82;;
35126;SDS011;21300;52.006;5.798;2023-07-31T04:48:47;20.33;;;7.07;;
35126;SDS011;21300;52.006;5.798;2023-07-31T04:51:14;21.42;;;7.40;;
35126;SDS011;21300;52.006;5.798;2023-07-31T04:53:39;15.77;;;6.78;;
35126;SDS011;21300;52.006;5.798;2023-07-31T04:56:06;17.13;;;6.35;;
35126;SDS011;21300;52.006;5.798;2023-07-31T04:58:32;19.90;;;6.82;;
35126;SDS011;21300;52.006;5.798;2023-07-31T05:00:58;16.45;;;6.70;;
35126;SDS011;21300;52.006;5.798;2023-07-31T05:03:26;19.15;;;6.68;;
35126;SDS011;21300;52.006;5.798;2023-07-31T05:05:52;23.70;;;6.95;;
35126;SDS011;21300;52.006;5.798;2023-07-31T05:08:18;18.58;;;6.97;;
35126;SDS011;21300;52.006;5.798;2023-07-31T05:10:43;17.70;;;6.60;;
35126;SDS011;21300;52.006;5.798;2023-07-31T05:13:09;20.83;;;6.55;;
35126;SDS011;21300;52.006;5.798;2023-07-31T05:15:35;18.27;;;6.80;;
35126;SDS011;21300;52.006;5.798;2023-07-31T05:18:00;16.58;;;6.70;;
35126;SDS011;21300;52.006;5.798;2023-07-31T05:20:26;16.27;;;7.50;;
35126;SDS011;21300;52.006;5.798;2023-07-31T05:22:52;14.93;;;6.15;;
35126;SDS011;21300;52.006;5.798;2023-07-31T05:25:18;19.27;;;7.22;;
35126;SDS011;21300;52.006;5.798;2023-07-31T05:27:43;17.25;;;6.13;;
35126;SDS011;21300;52.006;5.798;2023-07-31T05:30:09;17.55;;;5.70;;
35126;SDS011;21300;52.006;5.798;2023-07-31T05:32:34;12.13;;;5.57;;
35126;SDS011;21300;52.006;5.798;2023-07-31T05:35:00;16.25;;;7.47;;
35126;SDS011;21300;52.006;5.798;2023-07-31T05:37:26;14.48;;;6.43;;
35126;SDS011;21300;52.006;5.798;2023-07-31T05:39:51;18.00;;;7.30;;
35126;SDS011;21300;52.006;5.798;2023-07-31T05:45:03;14.10;;;5.72;;
35126;SDS011;21300;52.006;5.798;2023-07-31T05:47:30;14.43;;;6.68;;
35126;SDS011;21300;52.006;5.798;2023-07-31T05:49:55;15.10;;;6.70;;
35126;SDS011;21300;52.006;5.798;2023-07-31T05:52:21;12.27;;;5.72;;
35126;SDS011;21300;52.006;5.798;2023-07-31T05:54:47;11.80;;;5.60;;
35126;SDS011;21300;52.006;5.798;2023-07-31T05:57:12;12.82;;;6.13;;
35126;SDS011;21300;52.006;5.798;2023-07-31T05:59:38;13.80;;;5.65;;
35126;SDS011;21300;52.006;5.798;2023-07-31T06:02:03;17.17;;;6.30;;
35126;SDS011;21300;52.006;5.798;2023-07-31T06:04:29;11.48;;;5.35;;
35126;SDS011;21300;52.006;5.798;2023-07-31T06:06:55;12.50;;;5.75;;
35126;SDS011;21300;52.006;5.798;2023-07-31T06:09:21;10.45;;;4.97;;
35126;SDS011;21300;52.006;5.798;2023-07-31T06:11:46;10.95;;;5.63;;
35126;SDS011;21300;52.006;5.798;2023-07-31T06:14:12;12.75;;;5.55;;
35126;SDS011;21300;52.006;5.798;2023-07-31T06:16:38;11.88;;;5.55;;
35126;SDS011;21300;52.006;5.798;2023-07-31T06:19:03;11.65;;;5.20;;
35126;SDS011;21300;52.006;5.798;2023-07-31T06:21:29;11.80;;;5.18;;
35126;SDS011;21300;52.006;5.798;2023-07-31T06:23:55;16.40;;;5.22;;
35126;SDS011;21300;52.006;5.798;2023-07-31T06:26:20;8.48;;;4.57;;
35126;SDS011;21300;52.006;5.798;2023-07-31T06:28:46;9.93;;;4.78;;
35126;SDS011;21300;52.006;5.798;2023-07-31T06:31:11;10.00;;;4.40;;
35126;SDS011;21300;52.006;5.798;2023-07-31T06:33:37;8.07;;;4.40;;
35126;SDS011;21300;52.006;5.798;2023-07-31T06:36:03;9.90;;;4.28;;
35126;SDS011;21300;52.006;5.798;2023-07-31T06:38:29;11.57;;;4.57;;
35126;SDS011;21300;52.006;5.798;2023-07-31T06:40:54;11.40;;;4.85;;
35126;SDS011;21300;52.006;5.798;2023-07-31T06:43:20;10.05;;;4.28;;
35126;SDS011;21300;52.006;5.798;2023-07-31T06:45:46;11.20;;;4.65;;
35126;SDS011;21300;52.006;5.798;2023-07-31T06:48:13;10.00;;;4.60;;
35126;SDS011;21300;52.006;5.798;2023-07-31T06:50:39;8.20;;;3.92;;
35126;SDS011;21300;52.006;5.798;2023-07-31T06:53:07;7.97;;;3.85;;
35126;SDS011;21300;52.006;5.798;2023-07-31T06:55:33;11.30;;;3.53;;
35126;SDS011;21300;52.006;5.798;2023-07-31T06:57:58;8.18;;;3.90;;
35126;SDS011;21300;52.006;5.798;2023-07-31T07:00:24;8.73;;;3.80;;
35126;SDS011;21300;52.006;5.798;2023-07-31T07:02:50;8.10;;;3.08;;
35126;SDS011;21300;52.006;5.798;2023-07-31T07:05:16;4.78;;;2.88;;
35126;SDS011;21300;52.006;5.798;2023-07-31T07:07:42;6.30;;;3.47;;
35126;SDS011;21300;52.006;5.798;2023-07-31T07:10:08;5.05;;;2.67;;
35126;SDS011;21300;52.006;5.798;2023-07-31T07:12:34;7.70;;;2.90;;
35126;SDS011;21300;52.006;5.798;2023-07-31T07:15:00;5.03;;;2.70;;
35126;SDS011;21300;52.006;5.798;2023-07-31T07:17:27;5.20;;;2.72;;
35126;SDS011;21300;52.006;5.798;2023-07-31T07:19:54;4.18;;;2.45;;
35126;SDS011;21300;52.006;5.798;2023-07-31T07:22:21;4.18;;;2.33;;
35126;SDS011;21300;52.006;5.798;2023-07-31T07:25:05;2.65;;;1.73;;
35126;SDS011;21300;52.006;5.798;2023-07-31T07:27:32;3.75;;;2.08;;
35126;SDS011;21300;52.006;5.798;2023-07-31T07:29:58;3.97;;;1.58;;
35126;SDS011;21300;52.006;5.798;2023-07-31T07:32:23;2.38;;;1.70;;
35126;SDS011;21300;52.006;5.798;2023-07-31T07:34:49;4.15;;;1.90;;
35126;SDS011;21300;52.006;5.798;2023-07-31T07:37:14;3.65;;;2.08;;
35126;SDS011;21300;52.006;5.798;2023-07-31T07:39:40;3.47;;;1.92;;
35126;SDS011;21300;52.006;5.798;2023-07-31T07:42:06;3.38;;;1.98;;
35126;SDS011;21300;52.006;5.798;2023-07-31T07:44:32;4.95;;;1.90;;
35126;SDS011;21300;52.006;5.798;2023-07-31T07:46:57;4.30;;;1.95;;
35126;SDS011;21300;52.006;5.798;2023-07-31T07:49:23;3.50;;;1.95;;
35126;SDS011;21300;52.006;5.798;2023-07-31T07:51:48;4.07;;;2.00;;
35126;SDS011;21300;52.006;5.798;2023-07-31T07:54:14;3.97;;;2.38;;
35126;SDS011;21300;52.006;5.798;2023-07-31T07:56:41;3.05;;;1.77;;
35126;SDS011;21300;52.006;5.798;2023-07-31T07:59:07;3.17;;;2.30;;
35126;SDS011;21300;52.006;5.798;2023-07-31T08:01:32;5.97;;;2.50;;
35126;SDS011;21300;52.006;5.798;2023-07-31T08:03:58;3.65;;;2.20;;
35126;SDS011;21300;52.006;5.798;2023-07-31T08:06:24;2.50;;;1.80;;
35126;SDS011;21300;52.006;5.798;2023-07-31T08:08:49;3.30;;;2.13;;
35126;SDS011;21300;52.006;5.798;2023-07-31T08:11:15;2.38;;;1.73;;
35126;SDS011;21300;52.006;5.798;2023-07-31T08:13:41;4.85;;;2.15;;
35126;SDS011;21300;52.006;5.798;2023-07-31T08:16:06;2.88;;;2.30;;
35126;SDS011;21300;52.006;5.798;2023-07-31T08:18:33;3.10;;;1.90;;
35126;SDS011;21300;52.006;5.798;2023-07-31T08:20:59;2.53;;;1.98;;
35126;SDS011;21300;52.006;5.798;2023-07-31T08:23:24;2.08;;;1.85;;
35126;SDS011;21300;52.006;5.798;2023-07-31T08:25:50;2.47;;;1.90;;
35126;SDS011;21300;52.006;5.798;2023-07-31T08:28:15;2.85;;;2.13;;
35126;SDS011;21300;52.006;5.798;2023-07-31T08:30:41;2.40;;;2.20;;
35126;SDS011;21300;52.006;5.798;2023-07-31T08:33:07;2.42;;;2.15;;
35126;SDS011;21300;52.006;5.798;2023-07-31T08:35:33;3.67;;;2.17;;
35126;SDS011;21300;52.006;5.798;2023-07-31T08:37:59;3.38;;;2.53;;
35126;SDS011;21300;52.006;5.798;2023-07-31T08:40:24;3.90;;;2.70;;
35126;SDS011;21300;52.006;5.798;2023-07-31T08:42:52;2.72;;;2.28;;
35126;SDS011;21300;52.006;5.798;2023-07-31T08:45:19;2.72;;;2.40;;
35126;SDS011;21300;52.006;5.798;2023-07-31T08:47:49;4.88;;;2.75;;
35126;SDS011;21300;52.006;5.798;2023-07-31T08:50:17;3.50;;;2.50;;
35126;SDS011;21300;52.006;5.798;2023-07-31T08:52:48;3.08;;;2.55;;
35126;SDS011;21300;52.006;5.798;2023-07-31T08:55:15;3.10;;;2.50;;
35126;SDS011;21300;52.006;5.798;2023-07-31T08:57:41;4.10;;;2.45;;
35126;SDS011;21300;52.006;5.798;2023-07-31T09:02:56;2.88;;;2.63;;
35126;SDS011;21300;52.006;5.798;2023-07-31T09:05:28;3.38;;;2.65;;
35126;SDS011;21300;52.006;5.798;2023-07-31T09:07:55;3.50;;;2.97;;
35126;SDS011;21300;52.006;5.798;2023-07-31T09:10:21;4.20;;;2.72;;
35126;SDS011;21300;52.006;5.798;2023-07-31T09:12:48;3.05;;;2.78;;
35126;SDS011;21300;52.006;5.798;2023-07-31T09:15:15;4.68;;;3.03;;
35126;SDS011;21300;52.006;5.798;2023-07-31T09:17:41;4.20;;;2.92;;
35126;SDS011;21300;52.006;5.798;2023-07-31T09:20:17;3.20;;;2.85;;
35126;SDS011;21300;52.006;5.798;2023-07-31T09:22:45;3.15;;;2.85;;
35126;SDS011;21300;52.006;5.798;2023-07-31T09:25:17;3.65;;;2.88;;
35126;SDS011;21300;52.006;5.798;2023-07-31T09:27:54;3.97;;;3.42;;
35126;SDS011;21300;52.006;5.798;2023-07-31T09:30:27;4.20;;;3.00;;
35126;SDS011;21300;52.006;5.798;2023-07-31T09:33:14;6.28;;;3.97;;
35126;SDS011;21300;52.006;5.798;2023-07-31T09:35:39;4.97;;;4.20;;
35126;SDS011;21300;52.006;5.798;2023-07-31T09:38:09;4.70;;;4.22;;
35126;SDS011;21300;52.006;5.798;2023-07-31T09:40:37;5.63;;;4.63;;
35126;SDS011;21300;52.006;5.798;2023-07-31T09:43:03;9.07;;;4.97;;
35126;SDS011;21300;52.006;5.798;2023-07-31T09:45:33;8.20;;;5.13;;
35126;SDS011;21300;52.006;5.798;2023-07-31T09:48:01;8.23;;;6.20;;
35126;SDS011;21300;52.006;5.798;2023-07-31T09:50:28;7.20;;;6.00;;
35126;SDS011;21300;52.006;5.798;2023-07-31T09:52:53;9.27;;;6.72;;
35126;SDS011;21300;52.006;5.798;2023-07-31T09:55:19;8.00;;;6.03;;
35126;SDS011;21300;52.006;5.798;2023-07-31T09:57:48;7.88;;;6.72;;
35126;SDS011;21300;52.006;5.798;2023-07-31T10:00:15;9.95;;;7.28;;
35126;SDS011;21300;52.006;5.798;2023-07-31T10:02:44;10.68;;;7.80;;
35126;SDS011;21300;52.006;5.798;2023-07-31T10:05:12;11.20;;;7.00;;
35126;SDS011;21300;52.006;5.798;2023-07-31T10:07:40;8.02;;;7.20;;
35126;SDS011;21300;52.006;5.798;2023-07-31T10:10:19;12.13;;;7.43;;
35126;SDS011;21300;52.006;5.798;2023-07-31T10:12:46;8.13;;;7.38;;
35126;SDS011;21300;52.006;5.798;2023-07-31T10:15:14;11.63;;;8.00;;
35126;SDS011;21300;52.006;5.798;2023-07-31T10:17:40;10.48;;;7.60;;
35126;SDS011;21300;52.006;5.798;2023-07-31T10:20:06;9.18;;;7.80;;
35126;SDS011;21300;52.006;5.798;2023-07-31T10:22:33;11.90;;;8.23;;
35126;SDS011;21300;52.006;5.798;2023-07-31T10:24:59;9.60;;;8.43;;
35126;SDS011;21300;52.006;5.798;2023-07-31T10:27:25;9.57;;;8.27;;
35126;SDS011;21300;52.006;5.798;2023-07-31T10:29:52;13.05;;;8.43;;
35126;SDS011;21300;52.006;5.798;2023-07-31T10:32:19;8.57;;;6.95;;
35126;SDS011;21300;52.006;5.798;2023-07-31T10:34:46;9.82;;;7.50;;
35126;SDS011;21300;52.006;5.798;2023-07-31T10:37:23;10.27;;;8.65;;
35126;SDS011;21300;52.006;5.798;2023-07-31T10:39:56;9.93;;;8.18;;
35126;SDS011;21300;52.006;5.798;2023-07-31T10:42:36;14.68;;;9.50;;
35126;SDS011;21300;52.006;5.798;2023-07-31T10:45:08;10.95;;;9.18;;
35126;SDS011;21300;52.006;5.798;2023-07-31T10:47:43;13.93;;;10.07;;
35126;SDS011;21300;52.006;5.798;2023-07-31T10:52:43;10.48;;;9.38;;
35126;SDS011;21300;52.006;5.798;2023-07-31T10:55:28;11.30;;;8.95;;
35126;SDS011;21300;52.006;5.798;2023-07-31T10:58:13;14.52;;;9.25;;
35126;SDS011;21300;52.006;5.798;2023-07-31T11:00:44;11.25;;;8.73;;
35126;SDS011;21300;52.006;5.798;2023-07-31T11:03:11;12.10;;;8.77;;
35126;SDS011;21300;52.006;5.798;2023-07-31T11:05:44;11.30;;;8.77;;
35126;SDS011;21300;52.006;5.798;2023-07-31T11:08:14;10.18;;;8.20;;
35126;SDS011;21300;52.006;5.798;2023-07-31T11:10:46;9.15;;;7.70;;
35126;SDS011;21300;52.006;5.798;2023-07-31T11:13:13;12.35;;;8.63;;
35126;SDS011;21300;52.006;5.798;2023-07-31T11:15:39;11.18;;;8.55;;
35126;SDS011;21300;52.006;5.798;2023-07-31T11:18:04;9.70;;;7.25;;
35126;SDS011;21300;52.006;5.798;2023-07-31T11:20:34;9.65;;;8.43;;
35126;SDS011;21300;52.006;5.798;2023-07-31T11:23:05;11.50;;;7.90;;
35126;SDS011;21300;52.006;5.798;2023-07-31T11:25:34;10.20;;;7.85;;
35126;SDS011;21300;52.006;5.798;2023-07-31T11:28:07;9.63;;;8.32;;
35126;SDS011;21300;52.006;5.798;2023-07-31T11:30:36;13.13;;;8.93;;
35126;SDS011;21300;52.006;5.798;2023-07-31T11:33:03;11.05;;;8.45;;
35126;SDS011;21300;52.006;5.798;2023-07-31T11:35:30;9.70;;;8.32;;
35126;SDS011;21300;52.006;5.798;2023-07-31T11:38:00;10.60;;;8.82;;
35126;SDS011;21300;52.006;5.798;2023-07-31T11:40:27;11.80;;;8.35;;
35126;SDS011;21300;52.006;5.798;2023-07-31T11:42:57;12.05;;;8.45;;
35126;SDS011;21300;52.006;5.798;2023-07-31T11:45:26;10.43;;;7.70;;
35126;SDS011;21300;52.006;5.798;2023-07-31T11:47:56;10.02;;;8.15;;
35126;SDS011;21300;52.006;5.798;2023-07-31T11:50:22;13.27;;;8.82;;
35126;SDS011;21300;52.006;5.798;2023-07-31T11:52:51;13.73;;;7.75;;
35126;SDS011;21300;52.006;5.798;2023-07-31T11:55:21;9.40;;;6.43;;
35126;SDS011;21300;52.006;5.798;2023-07-31T11:57:47;9.35;;;7.93;;
35126;SDS011;21300;52.006;5.798;2023-07-31T12:00:13;8.13;;;6.63;;
35126;SDS011;21300;52.006;5.798;2023-07-31T12:02:40;10.98;;;7.63;;
35126;SDS011;21300;52.006;5.798;2023-07-31T12:05:09;10.63;;;7.05;;
35126;SDS011;21300;52.006;5.798;2023-07-31T12:07:49;9.25;;;7.15;;
35126;SDS011;21300;52.006;5.798;2023-07-31T12:10:34;9.43;;;6.68;;
35126;SDS011;21300;52.006;5.798;2023-07-31T12:16:00;7.13;;;6.43;;
35126;SDS011;21300;52.006;5.798;2023-07-31T12:18:20;7.30;;;6.38;;
35126;SDS011;21300;52.006;5.798;2023-07-31T12:20:46;6.85;;;5.80;;
35126;SDS011;21300;52.006;5.798;2023-07-31T12:23:17;10.13;;;6.93;;
35126;SDS011;21300;52.006;5.798;2023-07-31T12:28:58;6.97;;;5.70;;
35126;SDS011;21300;52.006;5.798;2023-07-31T12:31:24;8.68;;;7.03;;
35126;SDS011;21300;52.006;5.798;2023-07-31T12:33:53;9.43;;;6.38;;
35126;SDS011;21300;52.006;5.798;2023-07-31T12:36:22;10.15;;;6.28;;
35126;SDS011;21300;52.006;5.798;2023-07-31T12:38:49;9.38;;;6.32;;
35126;SDS011;21300;52.006;5.798;2023-07-31T12:41:15;7.20;;;6.50;;
35126;SDS011;21300;52.006;5.798;2023-07-31T12:43:42;8.43;;;6.82;;
35126;SDS011;21300;52.006;5.798;2023-07-31T12:46:08;6.80;;;6.10;;
35126;SDS011;21300;52.006;5.798;2023-07-31T12:48:34;8.25;;;6.30;;
35126;SDS011;21300;52.006;5.798;2023-07-31T12:51:01;6.20;;;5.63;;
35126;SDS011;21300;52.006;5.798;2023-07-31T12:53:27;8.60;;;7.70;;
35126;SDS011;21300;52.006;5.798;2023-07-31T12:55:53;11.05;;;8.43;;
35126;SDS011;21300;52.006;5.798;2023-07-31T12:58:19;10.23;;;8.23;;
35126;SDS011;21300;52.006;5.798;2023-07-31T13:00:45;12.85;;;9.20;;
35126;SDS011;21300;52.006;5.798;2023-07-31T13:03:11;7.55;;;6.68;;
35126;SDS011;21300;52.006;5.798;2023-07-31T13:05:36;9.68;;;6.90;;
35126;SDS011;21300;52.006;5.798;2023-07-31T13:08:02;7.43;;;6.60;;
35126;SDS011;21300;52.006;5.798;2023-07-31T13:10:27;8.90;;;7.82;;
35126;SDS011;21300;52.006;5.798;2023-07-31T13:12:54;12.57;;;7.43;;
35126;SDS011;21300;52.006;5.798;2023-07-31T13:15:20;7.85;;;7.05;;
35126;SDS011;21300;52.006;5.798;2023-07-31T13:17:46;8.32;;;7.32;;
35126;SDS011;21300;52.006;5.798;2023-07-31T13:20:12;11.00;;;7.07;;
35126;SDS011;21300;52.006;5.798;2023-07-31T13:22:38;7.85;;;6.57;;
35126;SDS011;21300;52.006;5.798;2023-07-31T13:25:23;8.38;;;6.25;;
35126;SDS011;21300;52.006;5.798;2023-07-31T13:27:49;9.80;;;7.10;;
35126;SDS011;21300;52.006;5.798;2023-07-31T13:30:14;11.00;;;6.97;;
35126;SDS011;21300;52.006;5.798;2023-07-31T13:32:40;8.48;;;6.63;;
35126;SDS011;21300;52.006;5.798;2023-07-31T13:35:06;9.63;;;6.25;;
35126;SDS011;21300;52.006;5.798;2023-07-31T13:37:33;10.50;;;6.93;;
35126;SDS011;21300;52.006;5.798;2023-07-31T13:39:59;8.00;;;6.68;;
35126;SDS011;21300;52.006;5.798;2023-07-31T13:42:25;9.15;;;6.03;;
35126;SDS011;21300;52.006;5.798;2023-07-31T13:44:51;9.80;;;6.00;;
35126;SDS011;21300;52.006;5.798;2023-07-31T13:47:17;8.35;;;6.68;;
35126;SDS011;21300;52.006;5.798;2023-07-31T13:49:43;9.00;;;5.75;;
35126;SDS011;21300;52.006;5.798;2023-07-31T13:52:08;6.28;;;5.38;;
35126;SDS011;21300;52.006;5.798;2023-07-31T13:54:34;7.65;;;6.40;;
35126;SDS011;21300;52.006;5.798;2023-07-31T13:57:00;7.63;;;6.28;;
35126;SDS011;21300;52.006;5.798;2023-07-31T13:59:25;7.50;;;5.80;;
35126;SDS011;21300;52.006;5.798;2023-07-31T14:01:51;10.07;;;7.30;;
35126;SDS011;21300;52.006;5.798;2023-07-31T14:04:17;9.13;;;7.03;;
35126;SDS011;21300;52.006;5.798;2023-07-31T14:06:43;9.15;;;7.00;;
35126;SDS011;21300;52.006;5.798;2023-07-31T14:09:08;9.85;;;8.25;;
35126;SDS011;21300;52.006;5.798;2023-07-31T14:11:34;11.05;;;7.55;;
35126;SDS011;21300;52.006;5.798;2023-07-31T14:14:00;9.73;;;7.38;;
35126;SDS011;21300;52.006;5.798;2023-07-31T14:16:27;10.35;;;6.80;;
35126;SDS011;21300;52.006;5.798;2023-07-31T14:18:53;10.13;;;7.05;;
35126;SDS011;21300;52.006;5.798;2023-07-31T14:21:19;11.52;;;7.00;;
35126;SDS011;21300;52.006;5.798;2023-07-31T14:23:45;10.80;;;6.15;;
35126;SDS011;21300;52.006;5.798;2023-07-31T14:26:10;11.68;;;7.28;;
35126;SDS011;21300;52.006;5.798;2023-07-31T14:28:36;11.18;;;7.10;;
35126;SDS011;21300;52.006;5.798;2023-07-31T14:31:02;11.38;;;7.70;;
35126;SDS011;21300;52.006;5.798;2023-07-31T14:33:27;9.70;;;6.57;;
35126;SDS011;21300;52.006;5.798;2023-07-31T14:35:53;9.82;;;7.03;;
35126;SDS011;21300;52.006;5.798;2023-07-31T14:38:19;9.95;;;7.38;;
35126;SDS011;21300;52.006;5.798;2023-07-31T14:40:44;7.97;;;5.68;;
35126;SDS011;21300;52.006;5.798;2023-07-31T14:43:10;7.03;;;5.10;;
35126;SDS011;21300;52.006;5.798;2023-07-31T14:45:36;10.93;;;6.28;;
35126;SDS011;21300;52.006;5.798;2023-07-31T14:48:01;11.43;;;6.43;;
35126;SDS011;21300;52.006;5.798;2023-07-31T14:50:27;9.60;;;6.15;;
35126;SDS011;21300;52.006;5.798;2023-07-31T14:52:53;8.85;;;5.47;;
35126;SDS011;21300;52.006;5.798;2023-07-31T14:55:19;8.35;;;5.63;;
35126;SDS011;21300;52.006;5.798;2023-07-31T14:57:45;9.07;;;5.65;;
35126;SDS011;21300;52.006;5.798;2023-07-31T15:00:10;8.75;;;5.68;;
35126;SDS011;21300;52.006;5.798;2023-07-31T15:02:37;8.73;;;5.30;;